createdAt,value
2022-11-07T00:00:50.340Z,10.48
2022-11-07T00:03:18.352Z,10.68
2022-11-07T00:05:45.957Z,10.73
2022-11-07T00:08:13.339Z,10.27
2022-11-07T00:10:40.563Z,10.85
2022-11-07T00:13:08.011Z,11.15
2022-11-07T00:15:35.514Z,10.00
2022-11-07T00:18:02.933Z,10.13
2022-11-07T00:20:29.955Z,10.70
2022-11-07T00:22:57.444Z,9.43
2022-11-07T00:25:26.905Z,11.85
2022-11-07T00:27:54.262Z,10.85
2022-11-07T00:30:21.461Z,9.25
2022-11-07T00:32:52.164Z,10.13
2022-11-07T00:35:21.298Z,10.25
2022-11-07T00:37:48.579Z,10.15
2022-11-07T00:40:15.774Z,10.55
2022-11-07T00:42:43.219Z,9.27
2022-11-07T00:45:10.440Z,9.98
2022-11-07T00:47:40.297Z,9.27
2022-11-07T00:50:07.960Z,10.40
2022-11-07T00:52:35.310Z,9.52
2022-11-07T00:55:02.630Z,10.73
2022-11-07T00:57:33.116Z,10.70
2022-11-07T01:00:00.229Z,10.57
2022-11-07T01:02:27.913Z,10.38
2022-11-07T01:04:55.000Z,9.30
2022-11-07T01:07:22.453Z,9.13
2022-11-07T01:09:49.608Z,8.95
2022-11-07T01:12:16.942Z,8.75
2022-11-07T01:14:44.122Z,8.63
2022-11-07T01:17:11.642Z,8.75
2022-11-07T01:19:38.738Z,9.07
2022-11-07T01:22:06.175Z,8.02
2022-11-07T01:24:33.284Z,7.38
2022-11-07T01:27:00.675Z,7.63
2022-11-07T01:29:27.656Z,7.25
2022-11-07T01:31:55.229Z,7.32
2022-11-07T01:34:24.465Z,7.88
2022-11-07T01:36:54.198Z,7.43
2022-11-07T01:39:23.830Z,8.05
2022-11-07T01:41:51.192Z,7.97
2022-11-07T01:44:18.255Z,7.57
2022-11-07T01:46:46.244Z,8.48
2022-11-07T01:49:19.869Z,7.97
2022-11-07T01:51:59.002Z,7.43
2022-11-07T01:54:32.252Z,7.70
2022-11-07T01:57:04.046Z,8.07
2022-11-07T01:59:32.717Z,9.68
2022-11-07T02:02:02.099Z,8.15
2022-11-07T02:04:31.761Z,8.85
2022-11-07T02:07:09.799Z,8.48
2022-11-07T02:09:39.788Z,9.13
2022-11-07T02:12:07.195Z,8.52
2022-11-07T02:14:34.611Z,8.95
2022-11-07T02:17:01.993Z,8.98
2022-11-07T02:19:35.489Z,8.48
2022-11-07T02:22:34.897Z,8.93
2022-11-07T02:25:06.244Z,7.47
2022-11-07T02:27:34.750Z,8.20
2022-11-07T02:30:15.778Z,7.65
2022-11-07T02:32:45.386Z,8.20
2022-11-07T02:35:34.843Z,7.50
2022-11-07T02:38:24.031Z,8.13
2022-11-07T02:40:59.623Z,8.07
2022-11-07T02:43:31.912Z,7.82
2022-11-07T02:46:01.490Z,8.95
2022-11-07T02:48:40.578Z,8.55
2022-11-07T02:51:07.963Z,7.65
2022-11-07T02:53:37.571Z,8.90
2022-11-07T02:56:05.282Z,8.45
2022-11-07T02:58:32.945Z,8.57
2022-11-07T03:03:41.938Z,8.98
2022-11-07T03:06:12.636Z,8.63
2022-11-07T03:08:39.852Z,9.18
2022-11-07T03:11:07.844Z,8.90
2022-11-07T03:13:35.548Z,8.35
2022-11-07T03:16:10.895Z,9.43
2022-11-07T03:18:38.629Z,8.20
2022-11-07T03:21:06.935Z,7.65
2022-11-07T03:23:35.470Z,8.38
2022-11-07T03:26:04.057Z,8.35
2022-11-07T03:28:31.348Z,8.50
2022-11-07T03:31:03.122Z,8.02
2022-11-07T03:33:31.169Z,7.38
2022-11-07T03:36:00.729Z,7.32
2022-11-07T03:38:30.226Z,8.82
2022-11-07T03:40:57.670Z,8.20
2022-11-07T03:43:24.931Z,6.40
2022-11-07T03:45:54.696Z,6.32
2022-11-07T03:48:21.780Z,6.40
2022-11-07T03:50:51.329Z,6.03
2022-11-07T03:53:24.832Z,6.70
2022-11-07T03:55:55.149Z,5.93
2022-11-07T03:58:25.332Z,5.75
2022-11-07T04:00:52.893Z,6.00
2022-11-07T04:03:19.999Z,6.00
2022-11-07T04:05:47.548Z,7.15
2022-11-07T04:08:14.665Z,7.40
2022-11-07T04:10:42.174Z,7.38
2022-11-07T04:13:09.953Z,7.88
2022-11-07T04:15:39.574Z,6.93
2022-11-07T04:18:06.709Z,7.72
2022-11-07T04:20:34.155Z,6.72
2022-11-07T04:23:03.633Z,8.85
2022-11-07T04:25:33.686Z,8.40
2022-11-07T04:28:00.875Z,7.50
2022-11-07T04:30:28.277Z,8.20
2022-11-07T04:33:00.274Z,7.10
2022-11-07T04:35:32.582Z,7.57
2022-11-07T04:38:00.797Z,7.60
2022-11-07T04:40:28.995Z,7.55
2022-11-07T04:42:56.592Z,7.88
2022-11-07T04:45:24.079Z,6.97
2022-11-07T04:47:53.954Z,7.72
2022-11-07T04:50:23.524Z,7.32
2022-11-07T04:52:50.624Z,7.57
2022-11-07T04:55:27.531Z,6.97
2022-11-07T04:57:54.880Z,7.40
2022-11-07T05:00:25.486Z,7.50
2022-11-07T05:02:52.750Z,8.40
2022-11-07T05:05:20.667Z,7.90
2022-11-07T05:07:48.122Z,6.57
2022-11-07T05:10:33.436Z,8.07
2022-11-07T05:13:00.918Z,7.70
2022-11-07T05:15:30.672Z,7.35
2022-11-07T05:17:57.672Z,6.68
2022-11-07T05:20:25.268Z,7.28
2022-11-07T05:22:56.385Z,7.00
2022-11-07T05:25:23.728Z,6.65
2022-11-07T05:27:55.596Z,7.20
2022-11-07T05:30:22.647Z,7.55
2022-11-07T05:32:50.004Z,6.63
2022-11-07T05:35:17.214Z,7.00
2022-11-07T05:37:46.820Z,6.82
2022-11-07T05:40:14.022Z,6.97
2022-11-07T05:42:41.600Z,7.07
2022-11-07T05:45:09.138Z,6.70
2022-11-07T05:47:36.489Z,6.43
2022-11-07T05:50:03.791Z,6.53
2022-11-07T05:52:32.552Z,7.05
2022-11-07T05:55:01.842Z,6.85
2022-11-07T05:57:31.949Z,6.57
2022-11-07T05:59:59.010Z,6.35
2022-11-07T06:02:26.374Z,7.38
2022-11-07T06:04:53.847Z,7.13
2022-11-07T06:07:21.234Z,8.43
2022-11-07T06:09:50.721Z,7.20
2022-11-07T06:12:18.177Z,6.63
2022-11-07T06:14:45.679Z,7.18
2022-11-07T06:17:13.093Z,7.38
2022-11-07T06:19:40.448Z,7.03
2022-11-07T06:22:07.731Z,6.40
2022-11-07T06:24:34.780Z,6.45
2022-11-07T06:27:02.337Z,6.72
2022-11-07T06:29:29.388Z,7.10
2022-11-07T06:31:56.680Z,8.00
2022-11-07T06:34:26.539Z,7.35
2022-11-07T06:37:02.629Z,7.30
2022-11-07T06:39:30.654Z,6.88
2022-11-07T06:41:57.959Z,7.95
2022-11-07T06:44:25.103Z,7.40
2022-11-07T06:46:54.676Z,7.75
2022-11-07T06:49:24.146Z,7.40
2022-11-07T06:51:51.417Z,7.78
2022-11-07T06:54:18.618Z,7.32
2022-11-07T06:56:55.671Z,8.07
2022-11-07T06:59:22.904Z,8.18
2022-11-07T07:01:50.309Z,9.02
2022-11-07T07:04:17.789Z,9.27
2022-11-07T07:06:45.414Z,8.20
2022-11-07T07:09:14.670Z,9.45
2022-11-07T07:11:41.985Z,8.68
2022-11-07T07:14:12.022Z,9.60
2022-11-07T07:16:39.604Z,9.45
2022-11-07T07:19:09.109Z,7.63
2022-11-07T07:21:39.618Z,7.88
2022-11-07T07:24:07.301Z,7.93
2022-11-07T07:26:34.696Z,7.85
2022-11-07T07:29:02.071Z,7.80
2022-11-07T07:31:31.672Z,7.32
2022-11-07T07:33:58.968Z,6.80
2022-11-07T07:36:26.676Z,6.70
2022-11-07T07:38:56.040Z,6.30
2022-11-07T07:41:25.740Z,6.55
2022-11-07T07:43:55.446Z,6.70
2022-11-07T07:46:27.509Z,6.25
2022-11-07T07:48:57.712Z,6.50
2022-11-07T07:51:29.715Z,6.72
2022-11-07T07:53:56.790Z,6.57
2022-11-07T07:56:24.174Z,6.95
2022-11-07T07:58:51.372Z,6.82
2022-11-07T08:01:18.834Z,5.65
2022-11-07T08:04:00.615Z,5.95
2022-11-07T08:06:29.390Z,5.72
2022-11-07T08:09:00.810Z,5.30
2022-11-07T08:11:28.182Z,5.40
2022-11-07T08:14:01.509Z,6.10
2022-11-07T08:16:29.351Z,4.72
2022-11-07T08:18:56.602Z,5.10
2022-11-07T08:21:23.876Z,4.57
2022-11-07T08:23:50.822Z,4.63
2022-11-07T08:26:18.332Z,4.40
2022-11-07T08:28:47.554Z,4.22
2022-11-07T08:31:17.420Z,4.15
2022-11-07T08:33:44.897Z,3.92
2022-11-07T08:36:12.664Z,4.07
2022-11-07T08:38:39.860Z,4.07
2022-11-07T08:41:09.477Z,4.20
2022-11-07T08:43:38.721Z,4.35
2022-11-07T08:46:06.098Z,4.32
2022-11-07T08:48:33.553Z,4.20
2022-11-07T08:51:03.362Z,4.10
2022-11-07T08:53:30.581Z,3.97
2022-11-07T08:56:06.061Z,4.88
2022-11-07T08:58:33.960Z,4.43
2022-11-07T09:01:04.726Z,4.05
2022-11-07T09:03:50.673Z,4.53
2022-11-07T09:06:21.530Z,4.38
2022-11-07T09:08:52.988Z,4.18
2022-11-07T09:11:22.794Z,4.30
2022-11-07T09:13:52.912Z,4.50
2022-11-07T09:16:23.406Z,4.65
2022-11-07T09:18:52.794Z,4.35
2022-11-07T09:21:22.609Z,4.30
2022-11-07T09:23:51.680Z,4.75
2022-11-07T09:26:19.194Z,4.35
2022-11-07T09:28:51.423Z,3.60
2022-11-07T09:31:21.550Z,4.00
2022-11-07T09:33:48.522Z,3.72
2022-11-07T09:36:15.847Z,3.88
2022-11-07T09:38:43.427Z,4.30
2022-11-07T09:41:20.594Z,4.85
2022-11-07T09:44:13.368Z,5.28
2022-11-07T09:46:49.345Z,5.53
2022-11-07T09:49:19.564Z,5.85
2022-11-07T09:51:56.242Z,4.68
2022-11-07T09:54:28.685Z,5.15
2022-11-07T09:57:00.100Z,5.40
2022-11-07T09:59:53.241Z,5.30
2022-11-07T10:02:24.577Z,5.45
2022-11-07T10:05:02.119Z,5.73
2022-11-07T10:07:51.489Z,6.13
2022-11-07T10:10:23.395Z,5.75
2022-11-07T10:13:27.988Z,10.20
2022-11-07T10:16:26.699Z,6.72
2022-11-07T10:19:20.123Z,5.70
2022-11-07T10:22:11.451Z,6.32
2022-11-07T10:33:56.937Z,5.32
2022-11-07T10:36:29.691Z,6.10
2022-11-07T10:38:57.789Z,5.57
2022-11-07T10:41:30.120Z,5.05
2022-11-07T10:44:12.794Z,5.80
2022-11-07T10:46:47.678Z,6.40
2022-11-07T10:49:21.956Z,5.68
2022-11-07T10:51:52.149Z,5.47
2022-11-07T10:54:25.981Z,5.32
2022-11-07T10:57:06.142Z,5.28
2022-11-07T10:59:39.257Z,5.78
2022-11-07T11:02:25.259Z,5.50
2022-11-07T11:04:58.278Z,6.45
2022-11-07T11:07:33.897Z,6.22
2022-11-07T11:10:02.143Z,6.15
2022-11-07T11:12:34.318Z,5.82
2022-11-07T11:15:10.990Z,5.85
2022-11-07T11:17:38.573Z,6.35
2022-11-07T11:20:26.811Z,6.68
2022-11-07T11:22:54.569Z,5.63
2022-11-07T11:25:22.874Z,6.03
2022-11-07T11:27:56.692Z,5.38
2022-11-07T11:30:25.024Z,6.25
2022-11-07T11:33:14.431Z,5.50
2022-11-07T11:35:51.513Z,5.47
2022-11-07T11:38:29.230Z,5.32
2022-11-07T11:41:10.777Z,4.90
2022-11-07T11:43:47.000Z,4.72
2022-11-07T11:46:35.929Z,4.38
2022-11-07T11:49:24.102Z,5.10
2022-11-07T11:52:10.635Z,5.55
2022-11-07T11:54:37.805Z,5.80
2022-11-07T11:57:10.626Z,4.93
2022-11-07T11:59:55.458Z,5.18
2022-11-07T12:02:23.176Z,5.47
2022-11-07T12:05:02.787Z,5.75
2022-11-07T12:07:44.153Z,5.88
2022-11-07T12:10:48.501Z,5.85
2022-11-07T12:13:28.263Z,5.22
2022-11-07T12:16:09.066Z,5.18
2022-11-07T12:18:43.429Z,5.28
2022-11-07T12:21:32.720Z,4.97
2022-11-07T12:24:05.091Z,5.15
2022-11-07T12:26:51.147Z,5.40
2022-11-07T12:29:37.278Z,4.18
2022-11-07T12:32:13.516Z,4.68
2022-11-07T12:34:55.446Z,4.50
2022-11-07T12:37:38.431Z,4.57
2022-11-07T12:40:27.954Z,4.38
2022-11-07T12:43:01.293Z,5.10
2022-11-07T12:45:52.929Z,4.82
2022-11-07T12:48:48.683Z,4.15
2022-11-07T12:51:37.849Z,4.00
2022-11-07T12:54:16.684Z,3.80
2022-11-07T12:56:47.242Z,3.22
2022-11-07T12:59:28.281Z,3.40
2022-11-07T13:02:02.999Z,3.55
2022-11-07T13:04:58.375Z,3.22
2022-11-07T13:07:42.056Z,3.20
2022-11-07T13:10:47.185Z,3.67
2022-11-07T13:13:57.879Z,3.55
2022-11-07T13:16:26.458Z,3.05
2022-11-07T13:18:56.677Z,3.55
2022-11-07T13:21:23.736Z,4.00
2022-11-07T13:23:51.223Z,4.30
2022-11-07T13:26:46.472Z,4.22
2022-11-07T13:29:38.773Z,4.00
2022-11-07T13:32:05.977Z,4.32
2022-11-07T13:34:55.428Z,4.15
2022-11-07T13:37:32.952Z,4.10
2022-11-07T13:40:13.555Z,3.97
2022-11-07T13:42:43.756Z,3.95
2022-11-07T13:45:33.056Z,3.90
2022-11-07T13:48:10.278Z,3.90
2022-11-07T13:50:42.088Z,5.43
2022-11-07T13:53:23.420Z,5.18
2022-11-07T13:56:02.979Z,5.25
2022-11-07T13:58:32.160Z,5.63
2022-11-07T14:01:11.063Z,5.28
2022-11-07T14:03:38.675Z,7.50
2022-11-07T14:06:06.929Z,5.65
2022-11-07T14:08:39.611Z,6.50
2022-11-07T14:11:22.156Z,6.45
2022-11-07T14:13:52.761Z,6.43
2022-11-07T14:16:21.579Z,6.28
2022-11-07T14:18:59.422Z,5.68
2022-11-07T14:21:32.644Z,6.00
2022-11-07T14:23:59.926Z,6.17
2022-11-07T14:26:33.154Z,6.10
2022-11-07T14:29:01.733Z,6.10
2022-11-07T14:31:34.998Z,6.40
2022-11-07T14:34:21.318Z,6.15
2022-11-07T14:36:53.782Z,6.00
2022-11-07T14:39:23.222Z,6.22
2022-11-07T14:41:52.123Z,6.07
2022-11-07T14:44:54.888Z,6.68
2022-11-07T14:47:32.831Z,6.97
2022-11-07T14:50:04.271Z,7.03
2022-11-07T14:52:41.029Z,6.97
2022-11-07T14:55:18.771Z,8.93
2022-11-07T14:57:49.306Z,7.63
2022-11-07T15:00:21.552Z,7.88
2022-11-07T15:02:53.584Z,7.43
2022-11-07T15:05:28.546Z,8.30
2022-11-07T15:07:58.186Z,7.80
2022-11-07T15:10:32.748Z,8.38
2022-11-07T15:13:21.817Z,8.73
2022-11-07T15:16:00.843Z,8.25
2022-11-07T15:18:33.606Z,7.93
2022-11-07T15:21:04.013Z,8.07
2022-11-07T15:23:35.193Z,8.65
2022-11-07T15:26:08.256Z,9.20
2022-11-07T15:28:41.976Z,8.90
2022-11-07T15:31:19.738Z,8.27
2022-11-07T15:33:50.444Z,9.32
2022-11-07T15:36:17.751Z,9.15
2022-11-07T15:38:48.307Z,9.60
2022-11-07T15:41:18.663Z,8.80
2022-11-07T15:43:46.154Z,8.60
2022-11-07T15:46:33.420Z,8.80
2022-11-07T15:49:01.290Z,8.00
2022-11-07T15:51:29.154Z,8.02
2022-11-07T15:53:56.825Z,8.02
2022-11-07T15:56:25.407Z,7.90
2022-11-07T15:58:57.602Z,8.32
2022-11-07T16:01:27.204Z,9.57
2022-11-07T16:03:56.987Z,10.10
2022-11-07T16:06:28.347Z,11.43
2022-11-07T16:08:56.423Z,10.30
2022-11-07T16:11:23.840Z,11.10
2022-11-07T16:13:59.320Z,9.77
2022-11-07T16:16:37.220Z,10.90
2022-11-07T16:19:05.339Z,9.27
2022-11-07T16:21:34.831Z,8.80
2022-11-07T16:24:02.399Z,8.73
2022-11-07T16:26:30.266Z,10.50
2022-11-07T16:28:57.755Z,10.57
2022-11-07T16:31:24.914Z,10.80
2022-11-07T16:33:52.399Z,11.82
2022-11-07T16:36:31.294Z,12.93
2022-11-07T16:38:59.577Z,12.80
2022-11-07T16:41:26.709Z,10.85
2022-11-07T16:43:59.015Z,10.73
2022-11-07T16:46:28.497Z,11.87
2022-11-07T16:49:06.113Z,13.57
2022-11-07T16:51:33.329Z,13.88
2022-11-07T16:54:00.808Z,15.65
2022-11-07T16:56:34.097Z,13.43
2022-11-07T17:01:29.257Z,12.77
2022-11-07T17:03:59.333Z,13.98
2022-11-07T17:06:31.863Z,14.15
2022-11-07T17:09:08.683Z,17.58
2022-11-07T17:11:39.995Z,17.35
2022-11-07T17:14:07.442Z,19.27
2022-11-07T17:16:34.960Z,18.85
2022-11-07T17:19:04.098Z,18.13
2022-11-07T17:21:36.686Z,20.13
2022-11-07T17:24:05.202Z,19.27
2022-11-07T17:26:35.161Z,19.55
2022-11-07T17:29:04.331Z,16.58
2022-11-07T17:31:31.623Z,17.60
2022-11-07T17:33:58.947Z,14.25
2022-11-07T17:36:37.454Z,12.00
2022-11-07T17:39:10.713Z,10.75
2022-11-07T17:41:38.815Z,9.85
2022-11-07T17:44:06.681Z,9.88
2022-11-07T17:46:35.687Z,10.10
2022-11-07T17:49:05.562Z,10.15
2022-11-07T17:51:35.750Z,10.73
2022-11-07T17:54:04.269Z,10.75
2022-11-07T17:56:32.327Z,9.82
2022-11-07T17:59:07.408Z,10.68
2022-11-07T18:01:37.249Z,9.40
2022-11-07T18:04:07.099Z,8.70
2022-11-07T18:06:39.691Z,8.70
2022-11-07T18:09:11.264Z,9.55
2022-11-07T18:11:38.256Z,8.02
2022-11-07T18:14:05.726Z,10.05
2022-11-07T18:16:35.012Z,8.48
2022-11-07T18:19:02.887Z,7.90
2022-11-07T18:21:30.469Z,8.48
2022-11-07T18:23:58.544Z,8.07
2022-11-07T18:26:29.178Z,7.43
2022-11-07T18:29:07.872Z,8.57
2022-11-07T18:31:36.065Z,8.27
2022-11-07T18:34:06.265Z,8.13
2022-11-07T18:36:38.951Z,7.68
2022-11-07T18:39:18.470Z,9.63
2022-11-07T18:41:45.692Z,7.43
2022-11-07T18:44:14.049Z,7.07
2022-11-07T18:46:41.317Z,7.93
2022-11-07T18:49:08.662Z,8.07
2022-11-07T18:51:36.014Z,7.40
2022-11-07T18:54:04.785Z,7.97
2022-11-07T18:56:35.081Z,7.10
2022-11-07T18:59:02.790Z,7.47
2022-11-07T19:01:31.512Z,7.20
2022-11-07T19:04:01.412Z,6.68
2022-11-07T19:06:30.183Z,6.50
2022-11-07T19:08:58.199Z,6.38
2022-11-07T19:11:27.702Z,6.63
2022-11-07T19:13:57.276Z,6.55
2022-11-07T19:16:24.380Z,7.22
2022-11-07T19:18:52.144Z,6.60
2022-11-07T19:21:21.321Z,7.53
2022-11-07T19:23:51.457Z,6.30
2022-11-07T19:26:18.691Z,5.53
2022-11-07T19:28:48.753Z,5.22
2022-11-07T19:31:18.506Z,5.20
2022-11-07T19:33:45.997Z,4.68
2022-11-07T19:36:19.974Z,5.95
2022-11-07T19:38:48.325Z,5.13
2022-11-07T19:41:16.638Z,5.00
2022-11-07T19:43:45.268Z,5.00
2022-11-07T19:46:15.506Z,4.80
2022-11-07T19:48:43.098Z,4.35
2022-11-07T19:51:18.445Z,4.75
2022-11-07T19:53:53.764Z,6.10
2022-11-07T19:56:21.463Z,5.60
2022-11-07T19:58:51.606Z,7.00
2022-11-07T20:01:23.325Z,8.02
2022-11-07T20:03:52.433Z,6.28
2022-11-07T20:06:26.301Z,6.13
2022-11-07T20:08:53.903Z,6.65
2022-11-07T20:11:23.753Z,6.10
2022-11-07T20:13:52.140Z,5.50
2022-11-07T20:16:19.157Z,5.80
2022-11-07T20:18:49.414Z,5.80
2022-11-07T20:21:20.022Z,6.20
2022-11-07T20:23:48.854Z,6.82
2022-11-07T20:26:19.037Z,7.53
2022-11-07T20:28:48.131Z,6.55
2022-11-07T20:31:18.234Z,7.07
2022-11-07T20:33:45.804Z,6.28
2022-11-07T20:36:18.373Z,6.53
2022-11-07T20:38:45.882Z,6.65
2022-11-07T20:41:13.622Z,6.68
2022-11-07T20:43:41.181Z,6.30
2022-11-07T20:46:11.945Z,6.50
2022-11-07T20:48:39.641Z,7.22
2022-11-07T20:51:14.434Z,6.97
2022-11-07T20:53:48.452Z,6.63
2022-11-07T20:56:17.658Z,6.85
2022-11-07T20:58:45.540Z,7.25
2022-11-07T21:01:24.021Z,7.15
2022-11-07T21:03:51.742Z,7.22
2022-11-07T21:06:19.480Z,7.65
2022-11-07T21:08:49.710Z,7.30
2022-11-07T21:11:17.303Z,6.95
2022-11-07T21:13:49.718Z,7.30
2022-11-07T21:16:22.711Z,6.95
2022-11-07T21:18:51.350Z,8.23
2022-11-07T21:21:24.771Z,6.78
2022-11-07T21:23:56.606Z,5.97
2022-11-07T21:26:35.323Z,6.60
2022-11-07T21:29:07.351Z,5.60
2022-11-07T21:31:39.478Z,5.60
2022-11-07T21:34:08.326Z,5.63
2022-11-07T21:36:37.677Z,4.97
2022-11-07T21:39:05.623Z,5.78
2022-11-07T21:41:32.930Z,6.78
2022-11-07T21:44:00.306Z,8.18
2022-11-07T21:46:29.513Z,6.80
2022-11-07T21:49:00.338Z,7.68
2022-11-07T21:51:30.438Z,7.07
2022-11-07T21:54:02.708Z,6.80
2022-11-07T21:56:39.338Z,7.68
2022-11-07T21:59:11.521Z,7.35
2022-11-07T22:01:39.317Z,6.70
2022-11-07T22:04:12.937Z,6.20
2022-11-07T22:06:42.986Z,6.22
2022-11-07T22:09:16.458Z,6.30
2022-11-07T22:11:44.046Z,6.13
2022-11-07T22:14:19.744Z,6.57
2022-11-07T22:16:48.011Z,5.82
2022-11-07T22:19:18.527Z,5.75
2022-11-07T22:21:45.908Z,7.10
2022-11-07T22:24:13.419Z,6.00
2022-11-07T22:26:40.490Z,5.80
2022-11-07T22:29:10.372Z,5.35
2022-11-07T22:31:37.582Z,5.88
2022-11-07T22:34:04.904Z,6.55
2022-11-07T22:36:34.388Z,5.97
2022-11-07T22:39:02.001Z,6.22
2022-11-07T22:41:29.083Z,6.43
2022-11-07T22:43:59.274Z,6.93
2022-11-07T22:46:30.203Z,6.47
2022-11-07T22:48:58.776Z,6.13
2022-11-07T22:51:28.943Z,6.80
2022-11-07T22:54:07.148Z,7.53
2022-11-07T22:56:35.808Z,7.80
2022-11-07T22:59:05.024Z,7.43
2022-11-07T23:01:34.685Z,6.88
2022-11-07T23:04:02.585Z,7.13
2022-11-07T23:06:30.269Z,7.47
2022-11-07T23:08:58.623Z,7.43
2022-11-07T23:11:47.497Z,7.18
2022-11-07T23:14:18.337Z,7.57
2022-11-07T23:16:48.540Z,6.90
2022-11-07T23:19:17.375Z,7.85
2022-11-07T23:21:44.738Z,7.05
2022-11-07T23:24:14.985Z,7.13
2022-11-07T23:26:42.086Z,7.65
2022-11-07T23:29:18.187Z,7.28
2022-11-07T23:31:47.979Z,8.80
2022-11-07T23:34:18.670Z,8.32
2022-11-07T23:36:45.846Z,8.73
2022-11-07T23:39:16.341Z,8.60
2022-11-07T23:41:43.795Z,8.38
2022-11-07T23:44:11.922Z,8.73
2022-11-07T23:46:39.156Z,8.80
2022-11-07T23:49:14.211Z,8.70
2022-11-07T23:51:45.103Z,8.55
2022-11-07T23:54:12.516Z,8.45
2022-11-07T23:56:39.832Z,8.30
2022-11-07T23:59:10.057Z,8.68
